createdAt,value
2023-03-28T00:01:40.781Z,98010.78
2023-03-28T00:04:17.766Z,98011.09
2023-03-28T00:07:13.624Z,98010.00
2023-03-28T00:09:47.642Z,98008.64
2023-03-28T00:12:23.816Z,98020.13
2023-03-28T00:15:02.481Z,98014.97
2023-03-28T00:17:41.102Z,98019.33
2023-03-28T00:20:14.318Z,98009.80
2023-03-28T00:22:44.939Z,98010.88
2023-03-28T00:25:16.200Z,98010.34
2023-03-28T00:27:58.329Z,98019.33
2023-03-28T00:33:12.447Z,98026.02
2023-03-28T00:35:57.971Z,98032.19
2023-03-28T00:42:02.389Z,98039.81
2023-03-28T00:47:53.251Z,98062.25
2023-03-28T00:59:50.492Z,98101.95
2023-03-28T01:02:57.698Z,98097.02
2023-03-28T01:09:01.456Z,98102.84
2023-03-28T01:12:05.821Z,98107.35
2023-03-28T01:18:44.225Z,98126.93
2023-03-28T01:21:29.061Z,98140.27
2023-03-28T01:24:14.527Z,98148.37
2023-03-28T01:27:01.604Z,98159.81
2023-03-28T01:29:57.904Z,98167.98
2023-03-28T01:33:09.397Z,98167.17
2023-03-28T01:36:33.864Z,98176.70
2023-03-28T01:39:03.199Z,98179.65
2023-03-28T01:42:03.018Z,98182.38
2023-03-28T01:45:20.212Z,98196.19
2023-03-28T01:47:55.566Z,98218.03
2023-03-28T01:50:55.103Z,98212.16
2023-03-28T01:53:43.854Z,98220.98
2023-03-28T01:56:47.029Z,98228.33
2023-03-28T02:00:28.386Z,98222.89
2023-03-28T02:02:45.590Z,98231.81
2023-03-28T02:09:07.719Z,98250.06
2023-03-28T02:11:42.622Z,98253.06
2023-03-28T02:14:38.684Z,98259.31
2023-03-28T02:17:46.575Z,98264.98
2023-03-28T02:20:51.596Z,98269.89
2023-03-28T02:27:14.911Z,98275.27
2023-03-28T02:33:41.379Z,98273.34
2023-03-28T02:36:31.646Z,98269.19
2023-03-28T02:39:13.285Z,98261.17
2023-03-28T02:41:51.816Z,98262.31
2023-03-28T02:48:38.248Z,98256.27
2023-03-28T02:51:41.978Z,98260.03
2023-03-28T02:54:52.882Z,98263.84
2023-03-28T02:57:46.356Z,98256.42
2023-03-28T03:00:19.941Z,98258.33
2023-03-28T03:09:20.340Z,98272.95
2023-03-28T03:12:30.228Z,98271.81
2023-03-28T03:18:15.756Z,98258.13
2023-03-28T03:21:28.612Z,98265.48
2023-03-28T03:30:19.151Z,98287.66
2023-03-28T03:33:07.014Z,98297.12
2023-03-28T03:36:16.547Z,98305.00
2023-03-28T03:41:54.028Z,98343.58
2023-03-28T03:47:24.843Z,98361.73
2023-03-28T03:49:59.872Z,98369.58
2023-03-28T03:52:30.352Z,98380.18
2023-03-28T03:55:00.371Z,98389.39
2023-03-28T03:57:32.372Z,98391.82
2023-03-28T04:00:03.811Z,98393.18
2023-03-28T04:02:47.296Z,98401.06
2023-03-28T04:05:18.344Z,98399.09
2023-03-28T04:07:48.689Z,98404.21
2023-03-28T04:10:46.134Z,98408.83
2023-03-28T04:13:02.786Z,98406.35
2023-03-28T04:15:32.794Z,98412.52
2023-03-28T04:18:06.799Z,98414.09
2023-03-28T04:20:51.282Z,98408.58
2023-03-28T04:23:23.145Z,98411.55
2023-03-28T04:25:55.240Z,98410.72
2023-03-28T04:28:58.876Z,98418.05
2023-03-28T04:31:30.453Z,98419.92
2023-03-28T04:34:01.104Z,98431.05
2023-03-28T04:36:32.188Z,98426.65
2023-03-28T04:40:09.704Z,98433.98
2023-03-28T04:42:48.394Z,98438.31
2023-03-28T04:45:36.618Z,98450.48
2023-03-28T04:48:27.429Z,98463.77
2023-03-28T04:51:03.274Z,98468.30
2023-03-28T04:53:33.505Z,98470.41
2023-03-28T04:56:05.361Z,98472.02
2023-03-28T04:58:35.269Z,98479.85
2023-03-28T05:01:06.209Z,98476.14
2023-03-28T05:03:57.361Z,98487.11
2023-03-28T05:06:33.698Z,98490.60
2023-03-28T05:09:43.661Z,98496.80
2023-03-28T05:12:55.886Z,98495.43
2023-03-28T05:16:06.369Z,98493.16
2023-03-28T05:18:47.131Z,98488.17
2023-03-28T05:21:17.117Z,98493.53
2023-03-28T05:24:06.082Z,98501.08
2023-03-28T05:26:37.375Z,98509.16
2023-03-28T05:29:20.298Z,98511.27
2023-03-28T05:31:59.353Z,98515.58
2023-03-28T05:34:32.465Z,98509.81
2023-03-28T05:37:06.452Z,98520.70
2023-03-28T05:39:40.543Z,98517.39
2023-03-28T05:42:12.291Z,98526.29
2023-03-28T05:45:00.945Z,98532.77
2023-03-28T05:50:31.352Z,98534.58
2023-03-28T05:52:50.910Z,98539.09
2023-03-28T05:55:28.145Z,98545.61
2023-03-28T05:58:03.081Z,98544.37
2023-03-28T06:00:42.823Z,98547.91
2023-03-28T06:03:36.866Z,98560.06
2023-03-28T06:06:12.710Z,98559.47
2023-03-28T06:08:47.120Z,98568.66
2023-03-28T06:11:21.328Z,98562.39
2023-03-28T06:13:54.991Z,98566.92
2023-03-28T06:16:30.229Z,98576.97
2023-03-28T06:19:17.794Z,98582.61
2023-03-28T06:22:05.887Z,98582.02
2023-03-28T06:24:41.403Z,98588.48
2023-03-28T06:27:33.456Z,98598.20
2023-03-28T06:32:47.178Z,98623.08
2023-03-28T06:35:18.649Z,98619.45
2023-03-28T06:37:50.702Z,98631.67
2023-03-28T06:40:22.432Z,98643.08
2023-03-28T06:43:02.062Z,98649.25
2023-03-28T06:45:48.576Z,98657.31
2023-03-28T06:51:56.019Z,98673.12
2023-03-28T06:54:36.397Z,98670.95
2023-03-28T06:57:34.962Z,98679.53
2023-03-28T07:05:49.181Z,98690.95
2023-03-28T07:08:26.360Z,98690.64
2023-03-28T07:11:11.858Z,98699.33
2023-03-28T07:13:44.328Z,98697.34
2023-03-28T07:16:24.287Z,98699.43
2023-03-28T07:18:57.226Z,98701.85
2023-03-28T07:21:50.481Z,98710.53
2023-03-28T07:24:48.220Z,98714.51
2023-03-28T07:27:48.612Z,98719.84
2023-03-28T07:30:26.472Z,98722.77
2023-03-28T07:33:07.966Z,98726.73
2023-03-28T07:35:34.903Z,98731.87
2023-03-28T07:38:08.578Z,98728.83
2023-03-28T07:40:45.927Z,98736.97
2023-03-28T07:43:16.964Z,98742.84
2023-03-28T07:46:01.996Z,98746.80
2023-03-28T07:48:36.038Z,98739.42
2023-03-28T07:51:39.930Z,98746.20
2023-03-28T07:57:49.327Z,98733.55
2023-03-28T08:03:35.522Z,98750.28
2023-03-28T08:09:05.951Z,98752.26
2023-03-28T08:11:38.285Z,98747.59
2023-03-28T08:14:12.776Z,98748.61
2023-03-28T08:16:48.648Z,98736.09
2023-03-28T08:19:22.829Z,98743.08
2023-03-28T08:21:54.871Z,98739.43
2023-03-28T08:27:55.426Z,98732.02
2023-03-28T08:30:41.366Z,98732.77
2023-03-28T08:33:15.064Z,98728.36
2023-03-28T08:35:47.597Z,98728.59
2023-03-28T08:38:20.160Z,98723.89
2023-03-28T08:41:11.611Z,98723.75
2023-03-28T08:44:21.207Z,98717.20
2023-03-28T08:46:54.202Z,98710.61
2023-03-28T08:49:25.336Z,98670.61
2023-03-28T08:55:19.308Z,98673.96
2023-03-28T08:58:35.387Z,98666.47
2023-03-28T09:04:48.269Z,98667.20
2023-03-28T09:07:47.183Z,98661.23
2023-03-28T09:10:22.208Z,98655.21
2023-03-28T09:16:53.324Z,98659.17
2023-03-28T09:19:49.046Z,98662.39
2023-03-28T09:22:57.824Z,98669.93
2023-03-28T09:26:53.763Z,98677.11
2023-03-28T09:28:40.467Z,98680.88
2023-03-28T09:31:33.882Z,98676.50
2023-03-28T09:34:33.060Z,98675.04
2023-03-28T09:37:25.782Z,98676.30
2023-03-28T09:40:03.820Z,98680.66
2023-03-28T09:46:10.776Z,98684.52
2023-03-28T09:49:03.137Z,98695.38
2023-03-28T09:52:00.144Z,98698.31
2023-03-28T09:55:10.319Z,98708.53
2023-03-28T09:58:12.701Z,98703.00
2023-03-28T10:04:07.585Z,98729.60
2023-03-28T10:07:00.164Z,98736.39
2023-03-28T10:09:46.723Z,98738.77
2023-03-28T10:16:00.343Z,98744.42
2023-03-28T10:22:34.197Z,98759.95
2023-03-28T10:24:52.315Z,98785.08
2023-03-28T10:34:17.670Z,98801.16
2023-03-28T10:36:32.339Z,98797.47
2023-03-28T10:38:56.453Z,98803.30
2023-03-28T10:43:10.156Z,98816.03
2023-03-28T10:44:37.620Z,98814.56
2023-03-28T10:47:16.532Z,98828.34
2023-03-28T10:50:01.364Z,98821.75
2023-03-28T10:52:55.647Z,98824.66
2023-03-28T10:55:50.003Z,98821.64
2023-03-28T10:59:00.976Z,98829.13
2023-03-28T11:02:03.526Z,98837.27
2023-03-28T11:08:25.336Z,98831.95
2023-03-28T11:11:27.773Z,98846.34
2023-03-28T11:14:53.271Z,98842.91
2023-03-28T11:17:33.859Z,98847.92
2023-03-28T11:20:39.672Z,98851.89
2023-03-28T11:23:16.663Z,98850.75
2023-03-28T11:25:57.479Z,98865.06
2023-03-28T11:29:05.513Z,98877.88
2023-03-28T11:32:17.714Z,98868.68
2023-03-28T11:35:14.573Z,98889.30
2023-03-28T11:38:11.720Z,98881.89
2023-03-28T11:41:19.177Z,98886.52
2023-03-28T11:44:04.864Z,98895.50
2023-03-28T11:47:14.308Z,98903.34
2023-03-28T11:50:19.237Z,98905.77
2023-03-28T11:53:12.603Z,98907.34
2023-03-28T11:55:58.973Z,98915.91
2023-03-28T11:58:44.932Z,98914.47
2023-03-28T12:04:40.763Z,98929.21
2023-03-28T12:07:54.695Z,98930.49
2023-03-28T12:13:55.489Z,98937.39
2023-03-28T12:16:31.311Z,98937.39
2023-03-28T12:19:10.540Z,98941.50
2023-03-28T12:21:45.962Z,98950.20
2023-03-28T12:24:31.073Z,98949.78
2023-03-28T12:56:08.838Z,99016.71
2023-03-28T12:59:09.395Z,99016.29
2023-03-28T13:05:08.364Z,99032.39
2023-03-28T13:08:34.421Z,99043.67
2023-03-28T13:11:11.668Z,99044.31
2023-03-28T13:14:10.463Z,99049.33
2023-03-28T13:17:02.368Z,99060.31
2023-03-28T13:20:11.694Z,99052.17
2023-03-28T13:23:03.884Z,99052.17
2023-03-28T13:26:06.609Z,99075.92
2023-03-28T13:29:15.765Z,99077.92
2023-03-28T13:35:12.549Z,99100.94
2023-03-28T13:38:11.259Z,99097.58
2023-03-28T13:41:15.812Z,99094.67
2023-03-28T13:44:19.831Z,99102.11
2023-03-28T14:00:25.770Z,99120.95
2023-03-28T14:02:58.232Z,99135.57
2023-03-28T14:05:30.519Z,99132.84
2023-03-28T14:08:22.543Z,99138.63
2023-03-28T14:11:28.830Z,99139.13
2023-03-28T14:14:30.744Z,99149.51
2023-03-28T14:20:24.197Z,99152.52
2023-03-28T14:23:32.490Z,99152.64
2023-03-28T14:26:07.196Z,99150.75
2023-03-28T14:29:04.325Z,99141.64
2023-03-28T14:35:48.197Z,99154.53
2023-03-28T14:38:19.749Z,99159.10
2023-03-28T14:44:14.923Z,99163.18
2023-03-28T14:47:35.622Z,99167.27
2023-03-28T14:50:22.187Z,99175.12
2023-03-28T14:53:25.508Z,99163.94
2023-03-28T14:56:18.072Z,99164.13
2023-03-28T14:58:56.064Z,99163.83
2023-03-28T15:02:01.265Z,99163.50
2023-03-28T15:05:37.145Z,99159.42
2023-03-28T15:08:31.678Z,99171.66
2023-03-28T15:11:28.782Z,99166.11
2023-03-28T15:17:34.735Z,99176.70
2023-03-28T15:22:49.256Z,99182.34
2023-03-28T15:28:17.578Z,99180.88
2023-03-28T15:30:48.635Z,99186.63
2023-03-28T15:33:23.420Z,99181.19
2023-03-28T15:35:53.439Z,99184.96
2023-03-28T15:38:39.892Z,99187.45
2023-03-28T15:41:28.869Z,99177.10
2023-03-28T15:47:29.317Z,99184.09
2023-03-28T15:50:23.478Z,99191.95
2023-03-28T15:53:08.024Z,99187.56
2023-03-28T15:56:13.931Z,99179.48
2023-03-28T15:59:11.661Z,99195.20
2023-03-28T16:02:22.820Z,99200.83
2023-03-28T16:05:37.850Z,99208.99
2023-03-28T16:11:21.333Z,99212.98
2023-03-28T16:14:42.234Z,99214.66
2023-03-28T16:17:27.304Z,99214.31
2023-03-28T16:20:27.384Z,99227.20
2023-03-28T16:23:41.810Z,99223.95
2023-03-28T16:26:15.637Z,99224.17
2023-03-28T16:29:10.666Z,99213.03
2023-03-28T16:32:29.053Z,99232.52
2023-03-28T16:35:29.316Z,99236.30
2023-03-28T16:44:32.545Z,99244.34
2023-03-28T16:47:04.786Z,99253.14
2023-03-28T16:53:53.901Z,99252.50
2023-03-28T16:55:13.408Z,99243.59
2023-03-28T16:57:44.444Z,99251.33
2023-03-28T17:00:18.216Z,99247.06
2023-03-28T17:02:52.927Z,99250.92
2023-03-28T17:05:44.831Z,99253.23
2023-03-28T17:08:51.508Z,99247.90
2023-03-28T17:11:58.474Z,99243.94
2023-03-28T17:14:52.092Z,99243.33
2023-03-28T17:17:42.117Z,99246.16
2023-03-28T17:23:35.527Z,99242.00
2023-03-28T17:27:05.689Z,99235.80
2023-03-28T17:29:56.396Z,99235.80
2023-03-28T17:32:46.204Z,99232.05
2023-03-28T17:35:43.636Z,99226.62
2023-03-28T17:38:39.965Z,99231.30
2023-03-28T17:45:01.756Z,99231.33
2023-03-28T17:50:43.237Z,99225.48
2023-03-28T17:50:45.758Z,99221.47
2023-03-28T17:54:00.263Z,99222.84
2023-03-28T17:56:39.006Z,99211.45
2023-03-28T18:02:31.280Z,99219.09
2023-03-28T18:11:43.044Z,99201.94
2023-03-28T18:23:48.429Z,99187.27
2023-03-28T18:26:31.674Z,99185.27
2023-03-28T18:29:58.097Z,99182.55
2023-03-28T18:35:39.704Z,99176.50
2023-03-28T18:38:44.769Z,99170.42
2023-03-28T18:41:50.571Z,99163.63
2023-03-28T18:44:30.203Z,99159.21
2023-03-28T18:50:43.567Z,99122.17
2023-03-28T18:53:46.616Z,99145.61
2023-03-28T18:56:45.298Z,99145.61
2023-03-28T19:02:23.617Z,99123.84
2023-03-28T19:07:34.748Z,99118.10
2023-03-28T19:10:07.698Z,99106.69
2023-03-28T19:12:38.199Z,99107.52
2023-03-28T19:17:59.396Z,99092.47
2023-03-28T19:21:08.028Z,99090.37
2023-03-28T19:23:55.987Z,99080.02
2023-03-28T20:02:33.995Z,99034.08
2023-03-28T20:05:17.622Z,99027.60
2023-03-28T20:07:43.788Z,99021.33
2023-03-28T20:10:17.568Z,99019.11
2023-03-28T20:12:55.559Z,99015.03
2023-03-28T20:15:25.607Z,99016.49
2023-03-28T20:18:06.459Z,99005.51
2023-03-28T20:21:02.282Z,99007.20
2023-03-28T20:24:08.815Z,99012.64
2023-03-28T20:27:18.411Z,98995.89
2023-03-28T20:30:01.199Z,98999.97
2023-03-28T20:33:03.363Z,98994.30
2023-03-28T20:36:33.750Z,98983.95
2023-03-28T20:39:04.980Z,98981.22
2023-03-28T20:44:43.568Z,98970.45
2023-03-28T20:47:40.131Z,98956.31
2023-03-28T20:53:45.659Z,98949.01
2023-03-28T20:59:49.670Z,98946.05
2023-03-28T21:03:00.826Z,98942.30
2023-03-28T21:05:51.561Z,98937.69
2023-03-28T21:15:17.722Z,98924.78
2023-03-28T21:18:05.354Z,98917.25
2023-03-28T21:27:35.259Z,98902.56
2023-03-28T21:30:15.512Z,98900.28
2023-03-28T21:32:55.060Z,98895.97
2023-03-28T21:35:41.169Z,98897.66
2023-03-28T21:38:11.454Z,98890.12
2023-03-28T21:40:41.733Z,98897.52
2023-03-28T21:43:12.450Z,98879.33
2023-03-28T21:45:44.260Z,98880.98
2023-03-28T21:48:25.706Z,98873.11
2023-03-28T21:51:01.542Z,98871.55
2023-03-28T21:53:44.747Z,98862.11
2023-03-28T21:56:15.373Z,98859.16
2023-03-28T21:58:50.259Z,98855.73
2023-03-28T22:01:20.711Z,98859.08
2023-03-28T22:03:50.846Z,98867.87
2023-03-28T22:06:21.708Z,98860.53
2023-03-28T22:09:00.129Z,98858.73
2023-03-28T22:12:09.360Z,98854.44
2023-03-28T22:14:55.305Z,98850.95
2023-03-28T22:20:52.630Z,98847.78
2023-03-28T22:26:16.572Z,98844.94
2023-03-28T22:28:47.205Z,98841.16
2023-03-28T22:31:17.867Z,98838.43
2023-03-28T22:33:48.371Z,98832.54
2023-03-28T22:36:22.116Z,98824.16
2023-03-28T22:39:15.877Z,98823.09
2023-03-28T22:42:20.628Z,98808.48
2023-03-28T22:45:30.134Z,98810.72
2023-03-28T22:52:00.482Z,98803.77
2023-03-28T22:54:47.762Z,98801.66
2023-03-28T22:57:30.295Z,98795.14
2023-03-28T23:09:15.416Z,98790.28
2023-03-28T23:12:15.625Z,98787.84
2023-03-28T23:15:35.964Z,98784.59
2023-03-28T23:17:27.842Z,98785.74
2023-03-28T23:20:00.976Z,98785.00
2023-03-28T23:22:32.039Z,98793.46
2023-03-28T23:25:04.041Z,98789.67
2023-03-28T23:27:34.700Z,98791.11
2023-03-28T23:30:26.878Z,98789.01
2023-03-28T23:33:07.099Z,98789.84
2023-03-28T23:36:13.465Z,98788.55
2023-03-28T23:38:59.547Z,98786.98
2023-03-28T23:41:33.730Z,98787.06
2023-03-28T23:44:11.608Z,98793.88
2023-03-28T23:46:49.072Z,98795.53
2023-03-28T23:49:25.988Z,98792.59
2023-03-28T23:51:57.356Z,98786.91
2023-03-28T23:54:35.480Z,98788.89
